createdAt,value
2024-05-09T00:01:39.434Z,72.17
2024-05-09T00:04:10.096Z,72.29
2024-05-09T00:06:40.712Z,72.39
2024-05-09T00:09:11.356Z,72.62
2024-05-09T00:11:42.279Z,73.11
2024-05-09T00:14:13.178Z,73.00
2024-05-09T00:16:44.022Z,73.09
2024-05-09T00:19:14.799Z,73.27
2024-05-09T00:21:45.453Z,73.55
2024-05-09T00:24:16.179Z,73.31
2024-05-09T00:26:46.856Z,73.40
2024-05-09T00:29:17.540Z,73.71
2024-05-09T00:31:48.438Z,73.75
2024-05-09T00:34:19.389Z,74.13
2024-05-09T00:36:50.249Z,74.20
2024-05-09T00:39:21.117Z,74.25
2024-05-09T00:41:51.818Z,74.26
2024-05-09T00:44:22.790Z,74.34
2024-05-09T00:46:55.393Z,74.51
2024-05-09T00:49:27.900Z,74.54
2024-05-09T00:51:59.635Z,74.54
2024-05-09T00:54:31.782Z,74.93
2024-05-09T00:57:02.865Z,75.01
2024-05-09T00:59:34.772Z,75.29
2024-05-09T01:02:07.187Z,75.43
2024-05-09T01:04:38.016Z,75.45
2024-05-09T01:07:09.066Z,75.71
2024-05-09T01:09:39.658Z,75.89
2024-05-09T01:12:10.741Z,75.94
2024-05-09T01:14:41.465Z,75.68
2024-05-09T01:17:12.630Z,75.37
2024-05-09T01:19:41.906Z,75.40
2024-05-09T01:22:12.630Z,75.05
2024-05-09T01:24:43.402Z,75.03
2024-05-09T01:27:14.220Z,76.00
2024-05-09T01:29:44.968Z,75.88
2024-05-09T01:32:15.714Z,75.77
2024-05-09T01:34:46.513Z,76.35
2024-05-09T01:37:17.381Z,76.74
2024-05-09T01:39:48.012Z,76.60
2024-05-09T01:42:18.639Z,76.41
2024-05-09T01:44:49.422Z,76.09
2024-05-09T01:47:20.235Z,75.99
2024-05-09T01:49:51.130Z,75.74
2024-05-09T01:52:21.865Z,75.56
2024-05-09T01:54:52.485Z,75.36
2024-05-09T01:57:23.302Z,75.20
2024-05-09T01:59:54.250Z,75.02
2024-05-09T02:02:25.165Z,75.10
2024-05-09T02:04:55.922Z,74.86
2024-05-09T02:07:27.507Z,74.87
2024-05-09T02:09:58.033Z,74.84
2024-05-09T02:12:28.805Z,74.74
2024-05-09T02:14:59.602Z,74.68
2024-05-09T02:17:30.559Z,74.60
2024-05-09T02:20:05.962Z,74.68
2024-05-09T02:22:36.786Z,74.59
2024-05-09T02:25:08.247Z,74.54
2024-05-09T02:27:38.805Z,74.61
2024-05-09T02:30:18.753Z,74.73
2024-05-09T02:32:56.884Z,74.77
2024-05-09T02:35:28.297Z,74.74
2024-05-09T02:37:59.037Z,74.66
2024-05-09T02:40:36.609Z,74.74
2024-05-09T02:43:11.121Z,74.73
2024-05-09T02:45:42.793Z,74.97
2024-05-09T02:48:14.360Z,75.08
2024-05-09T02:50:45.449Z,75.13
2024-05-09T02:53:16.528Z,75.11
2024-05-09T02:55:47.461Z,75.16
2024-05-09T02:58:18.381Z,75.16
2024-05-09T03:00:49.250Z,75.04
2024-05-09T03:03:20.104Z,74.96
2024-05-09T03:05:49.692Z,75.15
2024-05-09T03:08:20.586Z,75.23
2024-05-09T03:10:51.550Z,75.31
2024-05-09T03:13:22.541Z,75.19
2024-05-09T03:15:53.257Z,75.14
2024-05-09T03:18:23.742Z,75.42
2024-05-09T03:20:54.495Z,75.50
2024-05-09T03:23:25.019Z,75.88
2024-05-09T03:25:55.717Z,76.27
2024-05-09T03:28:26.480Z,76.55
2024-05-09T03:30:57.318Z,76.38
2024-05-09T03:33:28.622Z,76.51
2024-05-09T03:35:59.365Z,76.55
2024-05-09T03:38:30.168Z,76.47
2024-05-09T03:41:00.738Z,76.51
2024-05-09T03:43:31.340Z,76.48
2024-05-09T03:46:01.894Z,76.70
2024-05-09T03:48:36.950Z,76.99
2024-05-09T03:51:09.345Z,77.29
2024-05-09T03:53:40.372Z,77.24
2024-05-09T03:56:11.328Z,77.21
2024-05-09T03:58:42.074Z,77.16
2024-05-09T04:01:12.843Z,77.05
2024-05-09T04:03:44.047Z,76.93
2024-05-09T04:06:20.444Z,76.91
2024-05-09T04:08:51.288Z,76.86
2024-05-09T04:11:22.226Z,76.79
2024-05-09T04:13:53.281Z,76.81
2024-05-09T04:16:23.803Z,76.71
2024-05-09T04:18:54.914Z,76.50
2024-05-09T04:21:28.218Z,76.03
2024-05-09T04:23:58.900Z,75.54
2024-05-09T04:26:29.716Z,74.94
2024-05-09T04:29:00.965Z,74.22
2024-05-09T04:31:31.706Z,73.57
2024-05-09T04:34:03.072Z,72.84
2024-05-09T04:36:34.014Z,72.20
2024-05-09T04:39:04.557Z,71.95
2024-05-09T04:41:35.132Z,71.86
2024-05-09T04:44:06.012Z,71.88
2024-05-09T04:46:37.020Z,72.01
2024-05-09T04:49:07.791Z,71.78
2024-05-09T04:51:38.528Z,71.08
2024-05-09T04:54:15.656Z,70.39
2024-05-09T04:56:52.164Z,69.45
2024-05-09T04:59:23.596Z,68.79
2024-05-09T05:01:54.386Z,68.01
2024-05-09T05:04:25.723Z,66.89
2024-05-09T05:06:54.759Z,65.83
2024-05-09T05:09:25.612Z,65.71
2024-05-09T05:11:56.289Z,66.06
2024-05-09T05:14:27.246Z,65.95
2024-05-09T05:16:56.502Z,65.58
2024-05-09T05:19:27.934Z,65.69
2024-05-09T05:21:58.945Z,65.37
2024-05-09T05:24:30.400Z,65.69
2024-05-09T05:27:01.232Z,66.28
2024-05-09T05:29:32.712Z,66.86
2024-05-09T05:32:03.396Z,67.21
2024-05-09T05:34:32.801Z,67.78
2024-05-09T05:37:03.766Z,67.92
2024-05-09T05:39:34.228Z,68.24
2024-05-09T05:42:05.336Z,68.84
2024-05-09T05:44:36.084Z,69.29
2024-05-09T05:47:07.691Z,69.34
2024-05-09T05:49:38.484Z,69.30
2024-05-09T05:52:08.040Z,69.20
2024-05-09T05:54:38.702Z,69.76
2024-05-09T05:57:09.363Z,69.59
2024-05-09T05:59:40.364Z,70.04
2024-05-09T06:02:11.341Z,69.77
2024-05-09T06:04:42.704Z,69.57
2024-05-09T06:07:13.348Z,69.84
2024-05-09T06:09:47.495Z,69.29
2024-05-09T06:12:19.021Z,69.30
2024-05-09T06:14:49.895Z,69.05
2024-05-09T06:17:20.466Z,67.03
2024-05-09T06:19:51.654Z,65.81
2024-05-09T06:22:22.231Z,66.81
2024-05-09T06:24:52.724Z,65.54
2024-05-09T06:27:23.665Z,64.19
2024-05-09T06:29:54.197Z,61.46
2024-05-09T06:32:24.803Z,60.37
2024-05-09T06:34:54.091Z,58.34
2024-05-09T06:37:24.627Z,58.81
2024-05-09T06:39:54.009Z,55.91
2024-05-09T06:42:24.563Z,54.72
2024-05-09T06:44:55.191Z,52.97
2024-05-09T06:47:26.373Z,52.06
2024-05-09T06:49:55.512Z,52.72
2024-05-09T06:52:26.099Z,52.70
2024-05-09T06:54:56.633Z,53.37
2024-05-09T06:57:29.697Z,51.50
2024-05-09T07:00:00.688Z,50.34
2024-05-09T07:02:31.921Z,51.03
2024-05-09T07:05:02.702Z,49.76
2024-05-09T07:07:34.001Z,49.67
2024-05-09T07:10:06.278Z,48.67
2024-05-09T07:12:38.342Z,48.43
2024-05-09T07:15:09.601Z,48.99
2024-05-09T07:17:40.540Z,49.48
2024-05-09T07:20:23.002Z,48.66
2024-05-09T07:22:58.455Z,48.18
2024-05-09T07:25:29.096Z,48.10
2024-05-09T07:27:59.884Z,48.14
2024-05-09T07:30:34.015Z,47.62
2024-05-09T07:33:06.471Z,47.64
2024-05-09T07:35:37.520Z,46.74
2024-05-09T07:38:08.462Z,47.10
2024-05-09T07:40:41.325Z,46.86
2024-05-09T07:43:12.749Z,47.82
2024-05-09T07:45:52.226Z,48.17
2024-05-09T07:50:00.969Z,47.72
2024-05-09T07:53:53.275Z,47.69
2024-05-09T07:56:26.853Z,45.53
2024-05-09T07:58:57.803Z,46.44
2024-05-09T08:01:27.311Z,47.06
2024-05-09T08:03:56.491Z,46.44
2024-05-09T08:06:27.458Z,45.79
2024-05-09T08:09:00.877Z,46.38
2024-05-09T08:11:35.573Z,45.51
2024-05-09T08:14:06.170Z,45.45
2024-05-09T08:16:35.263Z,44.39
2024-05-09T08:19:05.992Z,44.60
2024-05-09T08:21:36.803Z,44.02
2024-05-09T08:24:07.909Z,43.42
2024-05-09T08:26:38.641Z,42.65
2024-05-09T08:29:07.666Z,43.74
2024-05-09T08:31:40.300Z,45.17
2024-05-09T08:34:11.800Z,43.32
2024-05-09T08:36:42.471Z,42.66
2024-05-09T08:39:13.114Z,43.34
2024-05-09T08:41:49.638Z,43.84
2024-05-09T08:44:21.174Z,42.74
2024-05-09T08:46:53.579Z,43.36
2024-05-09T08:49:25.663Z,43.46
2024-05-09T08:51:56.489Z,43.26
2024-05-09T08:54:27.354Z,43.65
2024-05-09T08:56:58.935Z,42.80
2024-05-09T08:59:35.524Z,44.15
2024-05-09T09:02:07.094Z,44.54
2024-05-09T09:04:41.352Z,44.91
2024-05-09T09:07:12.245Z,42.85
2024-05-09T09:09:46.462Z,42.37
2024-05-09T09:12:17.243Z,41.30
2024-05-09T09:14:47.950Z,41.85
2024-05-09T09:17:17.456Z,41.29
2024-05-09T09:19:47.977Z,42.30
2024-05-09T09:22:19.413Z,41.71
2024-05-09T09:24:50.004Z,41.92
2024-05-09T09:27:22.826Z,40.79
2024-05-09T09:29:53.388Z,40.61
2024-05-09T09:32:30.281Z,40.35
2024-05-09T09:35:02.094Z,40.38
2024-05-09T09:37:35.731Z,40.22
2024-05-09T09:40:12.922Z,40.76
2024-05-09T09:42:44.860Z,41.20
2024-05-09T09:45:16.042Z,40.44
2024-05-09T09:47:48.289Z,41.47
2024-05-09T09:50:27.354Z,41.54
2024-05-09T09:53:04.553Z,40.33
2024-05-09T09:55:36.510Z,39.61
2024-05-09T09:58:10.729Z,40.91
2024-05-09T10:00:43.562Z,41.08
2024-05-09T10:03:14.382Z,40.58
2024-05-09T10:05:47.372Z,40.04
2024-05-09T10:08:19.720Z,40.16
2024-05-09T10:10:50.763Z,39.53
2024-05-09T10:13:21.763Z,39.50
2024-05-09T10:15:54.752Z,39.65
2024-05-09T10:18:36.740Z,38.85
2024-05-09T10:21:17.624Z,38.87
2024-05-09T10:23:58.849Z,39.67
2024-05-09T10:26:36.345Z,38.35
2024-05-09T10:29:14.998Z,38.46
2024-05-09T10:31:46.988Z,38.78
2024-05-09T10:34:21.796Z,39.55
2024-05-09T10:36:55.741Z,38.33
2024-05-09T10:39:27.600Z,37.94
2024-05-09T10:41:58.112Z,39.26
2024-05-09T10:44:29.343Z,38.05
2024-05-09T10:47:00.006Z,37.67
2024-05-09T10:49:31.153Z,38.13
2024-05-09T10:52:04.449Z,38.25
2024-05-09T10:54:39.618Z,38.24
2024-05-09T10:57:10.243Z,38.37
2024-05-09T10:59:42.814Z,39.17
2024-05-09T11:02:13.763Z,38.15
2024-05-09T11:04:45.379Z,37.01
2024-05-09T11:07:17.570Z,37.17
2024-05-09T11:09:48.784Z,37.48
2024-05-09T11:12:22.047Z,38.15
2024-05-09T11:14:57.310Z,37.61
2024-05-09T11:17:28.032Z,37.78
2024-05-09T11:20:00.200Z,37.90
2024-05-09T11:22:35.348Z,38.27
2024-05-09T11:25:06.936Z,38.12
2024-05-09T11:27:40.663Z,38.61
2024-05-09T11:30:27.021Z,37.83
2024-05-09T11:33:02.258Z,37.61
2024-05-09T11:35:33.109Z,36.49
2024-05-09T11:38:03.874Z,37.77
2024-05-09T11:40:34.985Z,37.80
2024-05-09T11:43:06.492Z,36.55
2024-05-09T11:45:37.310Z,35.57
2024-05-09T11:48:08.910Z,35.19
2024-05-09T11:50:39.629Z,36.11
2024-05-09T11:53:10.130Z,36.61
2024-05-09T11:55:40.611Z,35.40
2024-05-09T11:58:12.187Z,35.21
2024-05-09T12:00:42.945Z,35.50
2024-05-09T12:03:13.978Z,36.87
2024-05-09T12:05:45.073Z,36.35
2024-05-09T12:08:15.774Z,36.61
2024-05-09T12:10:46.879Z,36.72
2024-05-09T12:13:17.843Z,36.34
2024-05-09T12:15:48.578Z,36.92
2024-05-09T12:18:19.234Z,37.26
2024-05-09T12:20:49.860Z,36.91
2024-05-09T12:23:20.450Z,36.58
2024-05-09T12:25:51.467Z,36.52
2024-05-09T12:28:22.974Z,37.01
2024-05-09T12:30:53.693Z,36.67
2024-05-09T12:33:24.327Z,36.99
2024-05-09T12:35:55.413Z,37.44
2024-05-09T12:38:25.923Z,37.38
2024-05-09T12:40:56.629Z,37.69
2024-05-09T12:43:27.430Z,38.66
2024-05-09T12:45:59.244Z,39.20
2024-05-09T12:48:30.014Z,37.67
2024-05-09T12:51:00.690Z,36.55
2024-05-09T12:53:31.542Z,36.75
2024-05-09T12:56:03.874Z,37.20
2024-05-09T12:58:35.666Z,38.24
2024-05-09T13:01:06.824Z,37.49
2024-05-09T13:03:37.746Z,36.34
2024-05-09T13:06:08.994Z,37.19
2024-05-09T13:08:39.713Z,37.99
2024-05-09T13:11:10.655Z,36.73
2024-05-09T13:13:41.304Z,36.54
2024-05-09T13:16:11.855Z,37.00
2024-05-09T13:18:43.954Z,37.15
2024-05-09T13:21:14.652Z,37.60
2024-05-09T13:23:45.466Z,37.77
2024-05-09T13:26:16.326Z,37.94
2024-05-09T13:28:46.968Z,37.99
2024-05-09T13:31:17.529Z,38.37
2024-05-09T13:33:48.611Z,37.88
2024-05-09T13:36:19.303Z,38.62
2024-05-09T13:38:49.834Z,38.32
2024-05-09T13:41:20.562Z,37.95
2024-05-09T13:43:51.159Z,37.94
2024-05-09T13:46:22.463Z,37.80
2024-05-09T13:48:53.388Z,38.74
2024-05-09T13:51:24.078Z,39.44
2024-05-09T13:53:56.525Z,37.69
2024-05-09T13:56:27.239Z,36.43
2024-05-09T13:58:57.925Z,36.50
2024-05-09T14:01:28.523Z,37.16
2024-05-09T14:03:59.419Z,37.19
2024-05-09T14:06:30.342Z,36.33
2024-05-09T14:09:00.997Z,36.35
2024-05-09T14:11:31.989Z,37.03
2024-05-09T14:14:02.737Z,36.53
2024-05-09T14:16:34.055Z,36.14
2024-05-09T14:19:04.931Z,35.67
2024-05-09T14:21:35.586Z,34.74
2024-05-09T14:24:07.200Z,33.95
2024-05-09T14:26:37.894Z,35.00
2024-05-09T14:29:08.543Z,34.29
2024-05-09T14:31:39.670Z,33.73
2024-05-09T14:34:10.906Z,32.26
2024-05-09T14:36:41.708Z,32.94
2024-05-09T14:39:12.303Z,31.53
2024-05-09T14:41:43.404Z,31.13
2024-05-09T14:44:13.999Z,31.19
2024-05-09T14:46:45.249Z,31.55
2024-05-09T14:49:15.998Z,32.38
2024-05-09T14:51:49.708Z,31.71
2024-05-09T14:54:20.504Z,30.98
2024-05-09T14:56:52.064Z,29.82
2024-05-09T14:59:22.717Z,28.65
2024-05-09T15:01:53.601Z,28.40
2024-05-09T15:04:24.465Z,27.92
2024-05-09T15:06:56.507Z,28.01
2024-05-09T15:09:27.246Z,28.72
2024-05-09T15:11:58.002Z,29.37
2024-05-09T15:14:28.643Z,29.24
2024-05-09T15:16:59.927Z,29.70
2024-05-09T15:19:31.841Z,30.29
2024-05-09T15:22:02.743Z,30.88
2024-05-09T15:24:33.809Z,31.34
2024-05-09T15:27:04.683Z,31.71
2024-05-09T15:29:35.223Z,32.18
2024-05-09T15:32:06.392Z,31.94
2024-05-09T15:34:37.208Z,32.33
2024-05-09T15:37:08.455Z,33.06
2024-05-09T15:39:39.341Z,32.94
2024-05-09T15:42:10.421Z,32.45
2024-05-09T15:44:40.999Z,32.78
2024-05-09T15:47:11.771Z,32.56
2024-05-09T15:49:42.770Z,33.22
2024-05-09T15:52:13.868Z,34.59
2024-05-09T15:54:44.588Z,33.54
2024-05-09T15:57:15.497Z,32.73
2024-05-09T15:59:46.291Z,33.47
2024-05-09T16:02:17.800Z,33.06
2024-05-09T16:04:48.827Z,33.36
2024-05-09T16:07:20.162Z,34.05
2024-05-09T16:09:50.690Z,34.60
2024-05-09T16:12:21.192Z,34.25
2024-05-09T16:14:52.285Z,34.83
2024-05-09T16:17:23.171Z,34.41
2024-05-09T16:19:54.515Z,33.80
2024-05-09T16:22:25.197Z,33.63
2024-05-09T16:24:55.835Z,33.86
2024-05-09T16:27:27.182Z,33.76
2024-05-09T16:30:03.952Z,33.76
2024-05-09T16:32:36.098Z,33.38
2024-05-09T16:35:09.941Z,33.73
2024-05-09T16:37:40.677Z,33.86
2024-05-09T16:40:22.004Z,33.74
2024-05-09T16:43:00.893Z,33.63
2024-05-09T16:45:31.743Z,32.87
2024-05-09T16:48:03.139Z,32.75
2024-05-09T16:50:35.843Z,32.74
2024-05-09T16:53:08.306Z,32.79
2024-05-09T16:55:39.143Z,33.62
2024-05-09T16:58:12.084Z,33.93
2024-05-09T17:00:44.130Z,34.34
2024-05-09T17:03:16.630Z,34.59
2024-05-09T17:05:48.424Z,34.67
2024-05-09T17:08:20.210Z,34.77
2024-05-09T17:10:51.197Z,35.00
2024-05-09T17:13:22.552Z,35.25
2024-05-09T17:15:53.360Z,35.36
2024-05-09T17:18:24.318Z,35.16
2024-05-09T17:20:55.038Z,34.87
2024-05-09T17:23:25.758Z,34.14
2024-05-09T17:25:56.722Z,34.07
2024-05-09T17:28:27.839Z,34.29
2024-05-09T17:30:58.597Z,33.86
2024-05-09T17:33:29.367Z,33.63
2024-05-09T17:36:00.574Z,33.39
2024-05-09T17:38:32.201Z,33.21
2024-05-09T17:41:02.773Z,33.35
2024-05-09T17:43:38.863Z,34.00
2024-05-09T17:46:09.694Z,33.60
2024-05-09T17:48:40.570Z,33.72
2024-05-09T17:51:11.212Z,33.70
2024-05-09T17:53:42.107Z,34.19
2024-05-09T17:56:12.908Z,34.64
2024-05-09T17:58:43.695Z,34.67
2024-05-09T18:01:14.551Z,35.21
2024-05-09T18:03:47.070Z,35.18
2024-05-09T18:06:18.127Z,35.64
2024-05-09T18:08:49.152Z,36.26
2024-05-09T18:11:21.612Z,36.64
2024-05-09T18:13:53.999Z,37.03
2024-05-09T18:16:28.567Z,37.59
2024-05-09T18:18:59.490Z,37.98
2024-05-09T18:21:30.556Z,38.90
2024-05-09T18:24:01.635Z,38.91
2024-05-09T18:26:32.873Z,39.10
2024-05-09T18:29:04.289Z,39.95
2024-05-09T18:31:34.911Z,40.45
2024-05-09T18:34:06.517Z,40.83
2024-05-09T18:36:37.381Z,41.46
2024-05-09T18:39:08.102Z,42.18
2024-05-09T18:41:38.782Z,42.42
2024-05-09T18:44:07.932Z,42.63
2024-05-09T18:46:38.878Z,43.23
2024-05-09T18:49:09.603Z,43.53
2024-05-09T18:51:40.312Z,44.24
2024-05-09T18:54:10.748Z,45.50
2024-05-09T18:56:42.877Z,46.33
2024-05-09T18:59:13.418Z,46.80
2024-05-09T19:01:44.125Z,47.32
2024-05-09T19:04:18.128Z,47.88
2024-05-09T19:06:49.059Z,48.26
2024-05-09T19:09:19.635Z,48.35
2024-05-09T19:11:50.252Z,48.88
2024-05-09T19:14:20.954Z,49.39
2024-05-09T19:16:51.624Z,49.76
2024-05-09T19:19:24.066Z,50.17
2024-05-09T19:21:54.904Z,50.63
2024-05-09T19:24:25.642Z,51.20
2024-05-09T19:26:56.812Z,51.95
2024-05-09T19:29:27.372Z,52.42
2024-05-09T19:31:58.328Z,52.60
2024-05-09T19:34:29.018Z,53.19
2024-05-09T19:36:59.891Z,53.47
2024-05-09T19:39:30.681Z,53.92
2024-05-09T19:41:59.929Z,54.14
2024-05-09T19:44:30.732Z,54.62
2024-05-09T19:47:01.414Z,54.81
2024-05-09T19:49:32.365Z,54.95
2024-05-09T19:52:03.139Z,55.20
2024-05-09T19:54:32.476Z,55.55
2024-05-09T19:57:03.103Z,55.82
2024-05-09T19:59:32.440Z,55.77
2024-05-09T20:02:03.146Z,55.88
2024-05-09T20:04:34.239Z,56.51
2024-05-09T20:07:03.388Z,57.11
2024-05-09T20:09:34.047Z,57.67
2024-05-09T20:12:05.294Z,57.87
2024-05-09T20:14:53.015Z,57.84
2024-05-09T20:17:23.707Z,57.94
2024-05-09T20:19:54.632Z,58.00
2024-05-09T20:22:25.226Z,58.15
2024-05-09T20:24:55.930Z,58.50
2024-05-09T20:27:26.690Z,58.75
2024-05-09T20:29:57.756Z,59.12
2024-05-09T20:32:28.708Z,59.38
2024-05-09T20:34:59.418Z,59.75
2024-05-09T20:37:29.936Z,60.00
2024-05-09T20:40:00.937Z,60.23
2024-05-09T20:42:34.407Z,60.47
2024-05-09T20:45:05.361Z,60.78
2024-05-09T20:47:36.186Z,61.13
2024-05-09T20:50:19.749Z,61.12
2024-05-09T20:52:54.710Z,61.37
2024-05-09T20:55:26.450Z,61.38
2024-05-09T20:57:57.744Z,61.69
2024-05-09T21:00:35.467Z,62.23
2024-05-09T21:03:11.458Z,62.40
2024-05-09T21:05:42.948Z,62.74
2024-05-09T21:08:13.849Z,62.99
2024-05-09T21:10:44.705Z,63.36
2024-05-09T21:13:15.540Z,63.44
2024-05-09T21:15:46.511Z,63.45
2024-05-09T21:18:17.345Z,63.40
2024-05-09T21:20:47.762Z,63.70
2024-05-09T21:23:18.552Z,64.10
2024-05-09T21:25:49.063Z,64.13
2024-05-09T21:28:19.808Z,64.10
2024-05-09T21:30:49.282Z,64.13
2024-05-09T21:33:20.154Z,64.50
2024-05-09T21:35:50.827Z,64.93
2024-05-09T21:38:21.425Z,65.04
2024-05-09T21:40:52.535Z,65.29
2024-05-09T21:43:23.722Z,65.43
2024-05-09T21:45:53.135Z,65.67
2024-05-09T21:48:23.859Z,65.66
2024-05-09T21:50:54.460Z,65.81
2024-05-09T21:53:25.102Z,66.08
2024-05-09T21:55:55.655Z,66.19
2024-05-09T21:58:26.733Z,66.49
2024-05-09T22:00:57.472Z,66.45
2024-05-09T22:03:28.273Z,66.45
2024-05-09T22:05:59.182Z,66.87
2024-05-09T22:08:29.799Z,66.77
2024-05-09T22:11:00.496Z,66.85
2024-05-09T22:13:31.963Z,66.95
2024-05-09T22:16:03.572Z,67.01
2024-05-09T22:18:34.435Z,67.32
2024-05-09T22:21:05.195Z,67.69
2024-05-09T22:23:35.972Z,67.70
2024-05-09T22:26:06.814Z,67.64
2024-05-09T22:28:35.994Z,67.72
2024-05-09T22:31:06.822Z,67.92
2024-05-09T22:33:37.420Z,67.86
2024-05-09T22:36:10.719Z,68.00
2024-05-09T22:38:41.310Z,68.27
2024-05-09T22:41:12.304Z,68.42
2024-05-09T22:43:42.948Z,68.69
2024-05-09T22:46:13.594Z,68.91
2024-05-09T22:48:44.355Z,68.99
2024-05-09T22:51:15.955Z,69.37
2024-05-09T22:53:46.798Z,69.48
2024-05-09T22:56:26.677Z,69.63
2024-05-09T22:58:57.566Z,69.56
2024-05-09T23:01:28.258Z,69.51
2024-05-09T23:03:59.067Z,69.58
2024-05-09T23:06:29.760Z,69.69
2024-05-09T23:09:00.559Z,69.78
2024-05-09T23:11:31.333Z,69.91
2024-05-09T23:14:02.039Z,69.89
2024-05-09T23:16:32.673Z,69.97
2024-05-09T23:19:03.437Z,69.95
2024-05-09T23:21:38.477Z,69.95
2024-05-09T23:24:09.534Z,70.26
2024-05-09T23:26:42.266Z,70.23
2024-05-09T23:29:13.122Z,70.48
2024-05-09T23:31:43.689Z,70.62
2024-05-09T23:34:15.141Z,70.60
2024-05-09T23:36:45.952Z,70.64
2024-05-09T23:39:16.763Z,70.58
2024-05-09T23:41:47.534Z,70.69
2024-05-09T23:44:18.093Z,70.85
2024-05-09T23:46:48.833Z,70.92
2024-05-09T23:49:19.691Z,70.98
2024-05-09T23:51:50.450Z,71.19
2024-05-09T23:54:21.455Z,71.15
2024-05-09T23:56:52.116Z,71.24
2024-05-09T23:59:22.771Z,71.22
